createdAt,value
2022-11-12T00:00:34.552Z,6.88
2022-11-12T00:03:20.942Z,7.32
2022-11-12T00:06:06.408Z,7.03
2022-11-12T00:08:52.207Z,6.93
2022-11-12T00:11:39.712Z,11.60
2022-11-12T00:14:25.591Z,6.18
2022-11-12T00:17:11.424Z,6.28
2022-11-12T00:19:57.048Z,10.88
2022-11-12T00:22:42.860Z,9.70
2022-11-12T00:25:28.700Z,7.60
2022-11-12T00:28:14.323Z,12.25
2022-11-12T00:31:00.117Z,10.90
2022-11-12T00:33:45.812Z,9.90
2022-11-12T00:36:31.701Z,8.23
2022-11-12T00:39:17.337Z,12.05
2022-11-12T00:42:02.984Z,10.13
2022-11-12T00:44:49.935Z,11.63
2022-11-12T00:47:35.493Z,11.25
2022-11-12T00:50:21.508Z,12.15
2022-11-12T00:53:07.600Z,11.00
2022-11-12T00:55:53.459Z,12.98
2022-11-12T00:58:39.268Z,16.58
2022-11-12T01:01:26.021Z,10.88
2022-11-12T01:04:11.987Z,12.30
2022-11-12T01:06:57.790Z,15.18
2022-11-12T01:09:43.711Z,11.40
2022-11-12T01:12:31.526Z,13.45
2022-11-12T01:15:16.973Z,12.32
2022-11-12T01:18:02.794Z,14.73
2022-11-12T01:20:48.639Z,10.82
2022-11-12T01:23:36.307Z,15.82
2022-11-12T01:26:23.393Z,13.68
2022-11-12T01:29:09.145Z,13.85
2022-11-12T01:31:55.134Z,11.57
2022-11-12T01:34:40.652Z,14.77
2022-11-12T01:37:27.443Z,13.85
2022-11-12T01:40:13.398Z,13.00
2022-11-12T01:42:59.477Z,11.75
2022-11-12T01:45:51.129Z,12.50
2022-11-12T01:48:41.542Z,11.00
2022-11-12T01:51:34.422Z,12.85
2022-11-12T01:54:22.024Z,12.18
2022-11-12T01:57:11.642Z,11.45
2022-11-12T02:00:02.265Z,13.85
2022-11-12T02:02:55.201Z,12.52
2022-11-12T02:05:42.643Z,10.73
2022-11-12T02:08:30.237Z,9.30
2022-11-12T02:11:21.247Z,12.57
2022-11-12T02:14:07.030Z,12.80
2022-11-12T02:16:53.385Z,10.07
2022-11-12T02:19:38.902Z,10.07
2022-11-12T02:22:24.468Z,10.55
2022-11-12T02:25:16.966Z,10.98
2022-11-12T02:30:50.636Z,9.23
2022-11-12T02:33:36.473Z,14.60
2022-11-12T02:36:22.602Z,8.38
2022-11-12T02:39:08.047Z,9.88
2022-11-12T02:41:54.110Z,9.40
2022-11-12T02:44:39.888Z,8.93
2022-11-12T02:47:25.364Z,9.18
2022-11-12T02:50:11.336Z,8.75
2022-11-12T02:52:57.183Z,12.73
2022-11-12T02:55:44.024Z,8.10
2022-11-12T02:58:30.421Z,8.65
2022-11-12T03:01:16.324Z,9.75
2022-11-12T03:04:01.564Z,8.93
2022-11-12T03:06:47.564Z,8.95
2022-11-12T03:09:33.265Z,8.52
2022-11-12T03:12:18.785Z,9.20
2022-11-12T03:15:04.746Z,8.15
2022-11-12T03:17:50.701Z,8.82
2022-11-12T03:20:36.231Z,8.10
2022-11-12T03:23:22.193Z,8.43
2022-11-12T03:26:07.993Z,6.57
2022-11-12T03:28:54.241Z,7.95
2022-11-12T03:31:39.916Z,8.43
2022-11-12T03:34:25.496Z,7.43
2022-11-12T03:37:11.013Z,7.82
2022-11-12T03:39:56.546Z,9.38
2022-11-12T03:42:46.725Z,8.82
2022-11-12T03:45:32.365Z,8.50
2022-11-12T03:48:18.102Z,9.02
2022-11-12T03:51:03.982Z,10.15
2022-11-12T03:53:49.769Z,10.85
2022-11-12T03:56:35.807Z,8.98
2022-11-12T03:59:21.175Z,7.88
2022-11-12T04:02:07.012Z,18.23
2022-11-12T04:05:12.811Z,9.75
2022-11-12T04:08:20.884Z,11.10
2022-11-12T04:11:10.187Z,8.25
2022-11-12T04:13:55.807Z,8.55
2022-11-12T04:16:59.885Z,11.75
2022-11-12T04:20:17.945Z,12.18
2022-11-12T04:23:03.792Z,8.82
2022-11-12T04:26:08.176Z,10.98
2022-11-12T04:29:12.303Z,8.50
2022-11-12T04:31:57.719Z,6.88
2022-11-12T04:34:43.890Z,6.82
2022-11-12T04:37:44.480Z,8.35
2022-11-12T04:40:49.212Z,9.77
2022-11-12T04:43:53.492Z,6.32
2022-11-12T04:46:39.167Z,5.57
2022-11-12T04:49:24.578Z,8.63
2022-11-12T04:52:10.898Z,8.23
2022-11-12T04:54:57.433Z,7.18
2022-11-12T04:57:42.811Z,7.07
2022-11-12T05:00:28.962Z,10.65
2022-11-12T05:03:15.432Z,8.98
2022-11-12T05:06:03.158Z,9.35
2022-11-12T05:08:48.737Z,8.80
2022-11-12T05:11:34.642Z,13.43
2022-11-12T05:14:20.124Z,10.15
2022-11-12T05:17:05.933Z,9.85
2022-11-12T05:19:51.293Z,10.43
2022-11-12T05:22:44.303Z,11.70
2022-11-12T05:25:33.689Z,12.65
2022-11-12T05:28:18.874Z,14.32
2022-11-12T05:31:04.592Z,11.95
2022-11-12T05:33:50.350Z,12.52
2022-11-12T05:36:35.668Z,9.90
2022-11-12T05:39:21.414Z,12.65
2022-11-12T05:42:12.846Z,14.23
2022-11-12T05:44:59.702Z,10.35
2022-11-12T05:47:45.370Z,11.82
2022-11-12T05:50:39.783Z,16.27
2022-11-12T05:53:31.180Z,9.27
2022-11-12T05:56:16.943Z,10.50
2022-11-12T05:59:04.963Z,14.23
2022-11-12T06:01:50.734Z,12.25
2022-11-12T06:04:36.417Z,11.18
2022-11-12T06:07:22.079Z,12.27
2022-11-12T06:10:08.331Z,9.80
2022-11-12T06:12:54.347Z,8.85
2022-11-12T06:15:40.139Z,10.68
2022-11-12T06:18:27.038Z,6.80
2022-11-12T06:21:27.479Z,11.20
2022-11-12T06:24:13.073Z,15.13
2022-11-12T06:26:58.488Z,9.23
2022-11-12T06:29:44.555Z,11.88
2022-11-12T06:32:30.074Z,13.43
2022-11-12T06:35:16.875Z,17.83
2022-11-12T06:38:02.412Z,11.15
2022-11-12T06:40:47.982Z,12.60
2022-11-12T06:43:34.369Z,15.38
2022-11-12T06:46:20.045Z,13.27
2022-11-12T06:49:08.368Z,10.27
2022-11-12T06:51:54.226Z,11.75
2022-11-12T06:54:39.769Z,9.05
2022-11-12T06:57:25.857Z,7.55
2022-11-12T07:00:12.213Z,5.65
2022-11-12T07:02:58.069Z,8.30
2022-11-12T07:05:43.922Z,10.95
2022-11-12T07:08:29.647Z,11.55
2022-11-12T07:11:16.337Z,8.05
2022-11-12T07:14:04.541Z,9.05
2022-11-12T07:16:50.285Z,10.93
2022-11-12T07:19:35.799Z,14.05
2022-11-12T07:22:21.394Z,20.10
2022-11-12T07:25:07.396Z,23.52
2022-11-12T07:27:53.614Z,12.75
2022-11-12T07:30:39.345Z,11.43
2022-11-12T07:33:25.843Z,15.45
2022-11-12T07:36:14.942Z,12.65
2022-11-12T07:39:00.581Z,9.60
2022-11-12T07:41:45.863Z,10.20
2022-11-12T07:44:31.529Z,13.43
2022-11-12T07:47:16.975Z,16.95
2022-11-12T07:50:02.960Z,11.68
2022-11-12T07:52:48.549Z,14.27
2022-11-12T07:55:33.985Z,11.30
2022-11-12T07:58:19.665Z,8.90
2022-11-12T08:01:09.755Z,15.98
2022-11-12T08:03:55.977Z,12.93
2022-11-12T08:06:41.808Z,16.35
2022-11-12T08:09:27.469Z,14.68
2022-11-12T08:12:13.049Z,11.23
2022-11-12T08:14:59.001Z,11.88
2022-11-12T08:17:44.581Z,12.70
2022-11-12T08:20:30.850Z,10.15
2022-11-12T08:23:16.259Z,14.65
2022-11-12T08:26:04.058Z,12.48
2022-11-12T08:28:49.967Z,12.80
2022-11-12T08:31:35.679Z,16.95
2022-11-12T08:34:22.827Z,8.98
2022-11-12T08:37:09.182Z,10.15
2022-11-12T08:39:55.326Z,12.38
2022-11-12T08:42:40.963Z,12.95
2022-11-12T08:45:27.863Z,10.93
2022-11-12T08:48:14.602Z,9.55
2022-11-12T08:51:02.393Z,8.88
2022-11-12T08:53:47.873Z,10.48
2022-11-12T08:56:34.128Z,9.43
2022-11-12T08:59:19.464Z,11.80
2022-11-12T09:02:07.213Z,6.63
2022-11-12T09:04:53.156Z,8.13
2022-11-12T09:07:54.280Z,8.65
2022-11-12T09:10:40.857Z,6.00
2022-11-12T09:13:26.528Z,7.85
2022-11-12T09:16:12.235Z,7.28
2022-11-12T09:18:57.659Z,5.95
2022-11-12T09:21:43.131Z,6.90
2022-11-12T09:24:29.067Z,6.85
2022-11-12T09:27:14.671Z,5.90
2022-11-12T09:30:00.851Z,6.47
2022-11-12T09:32:46.242Z,6.43
2022-11-12T09:35:32.367Z,7.32
2022-11-12T09:38:18.565Z,7.50
2022-11-12T09:41:42.840Z,6.20
2022-11-12T09:44:34.158Z,4.70
2022-11-12T09:47:34.514Z,5.10
2022-11-12T09:50:37.462Z,4.95
2022-11-12T09:56:15.023Z,4.18
2022-11-12T09:59:00.737Z,5.28
2022-11-12T10:02:19.319Z,6.45
2022-11-12T10:05:47.773Z,4.97
2022-11-12T10:08:55.143Z,3.92
2022-11-12T10:12:10.101Z,4.68
2022-11-12T10:15:34.306Z,5.43
2022-11-12T10:18:47.464Z,9.45
2022-11-12T10:21:50.110Z,19.77
2022-11-12T10:24:39.167Z,14.15
2022-11-12T10:27:32.493Z,7.65
2022-11-12T10:30:21.014Z,9.20
2022-11-12T10:33:06.799Z,6.90
2022-11-12T10:35:53.567Z,8.98
2022-11-12T10:38:41.605Z,8.65
2022-11-12T10:41:31.029Z,5.75
2022-11-12T10:44:26.758Z,8.07
2022-11-12T10:47:42.102Z,4.07
2022-11-12T10:50:43.044Z,4.95
2022-11-12T10:53:37.190Z,5.70
2022-11-12T10:56:32.516Z,7.43
2022-11-12T10:59:20.431Z,6.75
2022-11-12T11:02:17.102Z,6.32
2022-11-12T11:05:21.410Z,5.00
2022-11-12T11:08:10.310Z,5.68
2022-11-12T11:11:17.825Z,2.83
2022-11-12T11:14:22.176Z,4.45
2022-11-12T11:17:17.488Z,2.88
2022-11-12T11:20:05.623Z,5.22
2022-11-12T11:23:10.376Z,4.55
2022-11-12T11:26:02.133Z,4.93
2022-11-12T11:29:19.484Z,3.53
2022-11-12T11:32:41.069Z,5.40
2022-11-12T11:35:32.373Z,3.03
2022-11-12T11:38:39.816Z,5.20
2022-11-12T11:41:37.071Z,4.53
2022-11-12T11:44:53.327Z,3.25
2022-11-12T11:48:02.667Z,2.72
2022-11-12T11:51:13.231Z,4.03
2022-11-12T11:54:36.168Z,3.15
2022-11-12T11:57:47.951Z,4.78
2022-11-12T12:01:07.074Z,1.93
2022-11-12T12:04:04.097Z,2.92
2022-11-12T12:07:09.486Z,4.95
2022-11-12T12:09:58.847Z,2.15
2022-11-12T12:12:47.242Z,2.08
2022-11-12T12:16:17.031Z,3.35
2022-11-12T12:19:14.461Z,2.40
2022-11-12T12:22:03.763Z,4.30
2022-11-12T12:24:56.763Z,7.72
2022-11-12T12:28:02.612Z,2.30
2022-11-12T12:30:53.752Z,3.60
2022-11-12T12:34:02.720Z,3.88
2022-11-12T12:36:53.792Z,4.38
2022-11-12T12:39:58.161Z,1.80
2022-11-12T12:43:00.941Z,2.55
2022-11-12T12:45:47.478Z,3.00
2022-11-12T12:48:36.952Z,4.78
2022-11-12T12:51:23.004Z,2.00
2022-11-12T12:54:39.721Z,1.65
2022-11-12T12:57:35.362Z,1.73
2022-11-12T13:00:30.652Z,2.25
2022-11-12T13:03:50.405Z,4.20
2022-11-12T13:06:40.364Z,3.33
2022-11-12T13:09:27.215Z,3.25
2022-11-12T13:12:16.433Z,2.30
2022-11-12T13:15:16.230Z,3.33
2022-11-12T13:18:01.762Z,4.60
2022-11-12T13:21:20.716Z,3.13
2022-11-12T13:24:12.616Z,1.70
2022-11-12T13:26:59.322Z,2.45
2022-11-12T13:29:47.203Z,3.35
2022-11-12T13:32:44.565Z,3.00
2022-11-12T13:35:38.472Z,4.25
2022-11-12T13:38:24.326Z,1.88
2022-11-12T13:41:42.151Z,4.28
2022-11-12T13:44:28.841Z,2.50
2022-11-12T13:47:21.194Z,2.90
2022-11-12T13:50:10.554Z,2.65
2022-11-12T13:52:56.437Z,4.10
2022-11-12T13:55:49.836Z,3.45
2022-11-12T13:58:36.620Z,1.73
2022-11-12T14:01:24.339Z,3.47
2022-11-12T14:04:18.735Z,4.75
2022-11-12T14:07:26.943Z,2.30
2022-11-12T14:10:30.545Z,2.13
2022-11-12T14:13:22.859Z,2.95
2022-11-12T14:16:24.062Z,5.60
2022-11-12T14:19:28.475Z,4.28
2022-11-12T14:22:22.012Z,4.85
2022-11-12T14:25:20.962Z,2.85
2022-11-12T14:28:24.032Z,3.55
2022-11-12T14:31:15.520Z,4.32
2022-11-12T14:34:37.782Z,4.32
2022-11-12T14:37:42.965Z,3.85
2022-11-12T14:40:31.099Z,2.40
2022-11-12T14:43:33.895Z,2.33
2022-11-12T14:46:39.348Z,2.85
2022-11-12T14:49:30.762Z,3.72
2022-11-12T14:52:18.517Z,3.28
2022-11-12T14:55:13.561Z,2.65
2022-11-12T14:58:00.426Z,2.58
2022-11-12T15:00:49.455Z,2.80
2022-11-12T15:03:36.266Z,3.63
2022-11-12T15:06:34.018Z,2.50
2022-11-12T15:09:31.863Z,4.57
2022-11-12T15:12:27.147Z,3.95
2022-11-12T15:15:22.788Z,2.97
2022-11-12T15:18:20.547Z,4.55
2022-11-12T15:21:24.677Z,3.63
2022-11-12T15:24:18.110Z,3.08
2022-11-12T15:27:32.648Z,3.75
2022-11-12T15:30:36.221Z,3.95
2022-11-12T15:33:23.362Z,3.30
2022-11-12T15:36:27.108Z,5.47
2022-11-12T15:39:14.356Z,4.40
2022-11-12T15:42:03.588Z,2.97
2022-11-12T15:45:00.255Z,5.32
2022-11-12T15:47:46.578Z,2.67
2022-11-12T15:50:32.293Z,4.28
2022-11-12T15:53:18.573Z,2.92
2022-11-12T15:56:06.679Z,5.18
2022-11-12T15:58:52.898Z,6.32
2022-11-12T16:01:38.535Z,6.10
2022-11-12T16:04:24.571Z,5.65
2022-11-12T16:07:10.606Z,4.65
2022-11-12T16:09:56.034Z,5.85
2022-11-12T16:12:42.806Z,5.28
2022-11-12T16:15:28.814Z,8.32
2022-11-12T16:18:14.358Z,7.18
2022-11-12T16:21:00.329Z,9.43
2022-11-12T16:23:47.321Z,7.47
2022-11-12T16:26:33.885Z,11.50
2022-11-12T16:29:19.771Z,11.77
2022-11-12T16:32:05.874Z,23.55
2022-11-12T16:34:51.121Z,54.50
2022-11-12T16:37:38.533Z,35.28
2022-11-12T16:40:27.033Z,50.00
2022-11-12T16:43:12.643Z,36.13
2022-11-12T16:46:00.344Z,45.22
2022-11-12T16:48:46.452Z,47.30
2022-11-12T16:51:32.032Z,46.10
2022-11-12T16:54:17.458Z,36.17
2022-11-12T16:57:03.060Z,31.15
2022-11-12T16:59:48.686Z,24.20
2022-11-12T17:02:36.932Z,29.40
2022-11-12T17:05:26.852Z,24.15
2022-11-12T17:08:14.586Z,16.63
2022-11-12T17:11:06.613Z,15.30
2022-11-12T17:13:52.455Z,11.98
2022-11-12T17:16:37.971Z,9.60
2022-11-12T17:19:23.391Z,13.43
2022-11-12T17:22:08.970Z,14.88
2022-11-12T17:24:54.399Z,14.68
2022-11-12T17:27:40.467Z,12.55
2022-11-12T17:30:26.349Z,20.02
2022-11-12T17:33:12.271Z,18.08
2022-11-12T17:36:02.850Z,12.95
2022-11-12T17:38:48.956Z,13.75
2022-11-12T17:41:34.507Z,14.20
2022-11-12T17:44:20.858Z,11.77
2022-11-12T17:47:06.713Z,15.88
2022-11-12T17:49:52.640Z,13.02
2022-11-12T17:52:38.459Z,13.18
2022-11-12T17:55:24.957Z,15.50
2022-11-12T17:58:10.834Z,13.50
2022-11-12T18:01:03.965Z,15.02
2022-11-12T18:06:52.902Z,11.68
2022-11-12T18:09:38.953Z,9.43
2022-11-12T18:12:24.868Z,9.10
2022-11-12T18:15:12.903Z,11.77
2022-11-12T18:17:58.788Z,11.65
2022-11-12T18:20:44.494Z,10.02
2022-11-12T18:23:30.506Z,11.43
2022-11-12T18:26:18.810Z,13.95
2022-11-12T18:29:04.786Z,9.55
2022-11-12T18:31:50.512Z,10.95
2022-11-12T18:34:39.928Z,11.38
2022-11-12T18:37:25.969Z,20.35
2022-11-12T18:40:11.700Z,25.08
2022-11-12T18:42:57.426Z,22.33
2022-11-12T18:45:43.040Z,24.63
2022-11-12T18:48:29.810Z,23.45
2022-11-12T18:51:18.362Z,19.23
2022-11-12T18:54:04.265Z,21.48
2022-11-12T18:56:50.044Z,23.08
2022-11-12T18:59:35.505Z,23.77
2022-11-12T19:02:21.719Z,22.13
2022-11-12T19:05:07.790Z,21.70
2022-11-12T19:07:53.610Z,25.45
2022-11-12T19:10:39.126Z,24.67
2022-11-12T19:13:25.617Z,23.17
2022-11-12T19:16:19.636Z,24.55
2022-11-12T19:19:05.267Z,25.58
2022-11-12T19:21:51.303Z,20.48
2022-11-12T19:24:37.442Z,23.08
2022-11-12T19:27:23.414Z,19.15
2022-11-12T19:30:09.804Z,19.50
2022-11-12T19:32:56.151Z,26.83
2022-11-12T19:35:41.604Z,20.55
2022-11-12T19:38:28.084Z,29.05
2022-11-12T19:41:19.725Z,26.23
2022-11-12T19:44:06.093Z,23.92
2022-11-12T19:46:51.898Z,20.20
2022-11-12T19:49:37.606Z,18.88
2022-11-12T19:52:23.638Z,20.15
2022-11-12T19:55:09.444Z,20.50
2022-11-12T19:57:55.592Z,18.10
2022-11-12T20:00:41.478Z,15.63
2022-11-12T20:03:29.384Z,14.75
2022-11-12T20:06:18.421Z,12.30
2022-11-12T20:09:04.449Z,13.07
2022-11-12T20:11:51.152Z,16.48
2022-11-12T20:14:37.251Z,14.88
2022-11-12T20:17:22.666Z,14.50
2022-11-12T20:20:09.646Z,14.88
2022-11-12T20:22:55.171Z,17.60
2022-11-12T20:25:40.885Z,14.63
2022-11-12T20:28:26.444Z,22.85
2022-11-12T20:31:19.857Z,17.85
2022-11-12T20:34:05.894Z,17.17
2022-11-12T20:36:51.879Z,12.75
2022-11-12T20:39:37.759Z,14.32
2022-11-12T20:42:23.668Z,14.90
2022-11-12T20:45:09.759Z,15.10
2022-11-12T20:47:56.288Z,16.48
2022-11-12T20:51:02.296Z,15.80
2022-11-12T20:53:47.981Z,23.13
2022-11-12T20:56:33.933Z,28.25
2022-11-12T20:59:21.636Z,23.60
2022-11-12T21:02:10.138Z,19.05
2022-11-12T21:04:56.176Z,25.58
2022-11-12T21:07:41.860Z,23.23
2022-11-12T21:10:27.780Z,25.67
2022-11-12T21:13:13.722Z,18.42
2022-11-12T21:15:59.630Z,19.98
2022-11-12T21:18:45.516Z,20.80
2022-11-12T21:21:31.742Z,15.77
2022-11-12T21:24:17.609Z,16.70
2022-11-12T21:27:03.535Z,17.38
2022-11-12T21:29:49.290Z,23.02
2022-11-12T21:32:35.253Z,21.45
2022-11-12T21:35:20.901Z,18.10
2022-11-12T21:38:06.687Z,17.40
2022-11-12T21:40:52.428Z,16.08
2022-11-12T21:43:46.105Z,19.83
2022-11-12T21:46:32.892Z,18.05
2022-11-12T21:49:18.662Z,18.52
2022-11-12T21:52:04.866Z,19.10
2022-11-12T21:54:50.686Z,18.30
2022-11-12T21:57:39.135Z,19.48
2022-11-12T22:00:41.465Z,23.58
2022-11-12T22:03:32.644Z,17.40
2022-11-12T22:06:19.927Z,18.10
2022-11-12T22:09:05.711Z,22.13
2022-11-12T22:11:51.410Z,19.17
2022-11-12T22:14:37.182Z,20.98
2022-11-12T22:17:22.764Z,17.88
2022-11-12T22:20:10.202Z,24.95
2022-11-12T22:22:57.236Z,19.83
2022-11-12T22:25:42.806Z,16.63
2022-11-12T22:28:28.942Z,20.15
2022-11-12T22:31:17.224Z,18.17
2022-11-12T22:34:03.439Z,20.65
2022-11-12T22:36:49.650Z,23.42
2022-11-12T22:39:35.595Z,18.98
2022-11-12T22:42:21.535Z,20.48
2022-11-12T22:45:08.224Z,23.30
2022-11-12T22:47:53.984Z,23.13
2022-11-12T22:50:40.090Z,19.55
2022-11-12T22:53:26.268Z,23.15
2022-11-12T22:56:15.129Z,18.65
2022-11-12T22:59:03.639Z,22.27
2022-11-12T23:01:49.849Z,19.40
2022-11-12T23:04:35.694Z,23.08
2022-11-12T23:07:22.036Z,21.25
2022-11-12T23:10:08.255Z,21.63
2022-11-12T23:12:54.919Z,21.52
2022-11-12T23:15:43.537Z,24.58
2022-11-12T23:18:30.184Z,22.60
2022-11-12T23:21:19.753Z,21.70
2022-11-12T23:24:05.590Z,20.75
2022-11-12T23:26:51.095Z,19.92
2022-11-12T23:29:37.598Z,17.73
2022-11-12T23:32:22.948Z,18.00
2022-11-12T23:35:08.755Z,17.58
2022-11-12T23:37:54.236Z,18.17
2022-11-12T23:40:40.115Z,20.33
2022-11-12T23:43:26.347Z,16.65
2022-11-12T23:46:12.702Z,18.45
2022-11-12T23:48:58.185Z,18.13
2022-11-12T23:51:44.068Z,16.48
2022-11-12T23:54:29.561Z,14.73
2022-11-12T23:57:15.226Z,18.70
